sensor_id;sensor_type;location;lat;lon;timestamp;temperature;humidity
24144;DHT22;12307;50.828;6.080;2023-01-25T00:00:38;18.50;54.00
24144;DHT22;12307;50.828;6.080;2023-01-25T00:03:03;18.50;54.00
24144;DHT22;12307;50.828;6.080;2023-01-25T00:05:29;18.50;54.00
24144;DHT22;12307;50.828;6.080;2023-01-25T00:07:55;18.50;53.90
24144;DHT22;12307;50.828;6.080;2023-01-25T00:10:22;18.50;53.70
24144;DHT22;12307;50.828;6.080;2023-01-25T00:12:48;18.50;53.60
24144;DHT22;12307;50.828;6.080;2023-01-25T00:15:14;18.50;53.60
24144;DHT22;12307;50.828;6.080;2023-01-25T00:17:40;18.50;53.60
24144;DHT22;12307;50.828;6.080;2023-01-25T00:20:06;18.50;53.50
24144;DHT22;12307;50.828;6.080;2023-01-25T00:22:32;18.60;53.70
24144;DHT22;12307;50.828;6.080;2023-01-25T00:25:01;18.60;53.70
24144;DHT22;12307;50.828;6.080;2023-01-25T00:27:28;18.60;53.60
24144;DHT22;12307;50.828;6.080;2023-01-25T00:29:54;18.60;53.40
24144;DHT22;12307;50.828;6.080;2023-01-25T00:32:41;18.60;53.40
24144;DHT22;12307;50.828;6.080;2023-01-25T00:35:11;18.60;53.30
24144;DHT22;12307;50.828;6.080;2023-01-25T00:37:39;18.60;53.30
24144;DHT22;12307;50.828;6.080;2023-01-25T00:40:10;18.60;53.20
24144;DHT22;12307;50.828;6.080;2023-01-25T00:42:37;18.60;53.30
24144;DHT22;12307;50.828;6.080;2023-01-25T00:45:04;18.60;53.30
24144;DHT22;12307;50.828;6.080;2023-01-25T00:47:29;18.60;53.30
24144;DHT22;12307;50.828;6.080;2023-01-25T00:49:55;18.60;53.30
24144;DHT22;12307;50.828;6.080;2023-01-25T00:52:21;18.60;53.40
24144;DHT22;12307;50.828;6.080;2023-01-25T00:54:47;18.60;53.40
24144;DHT22;12307;50.828;6.080;2023-01-25T00:57:13;18.60;53.40
24144;DHT22;12307;50.828;6.080;2023-01-25T00:59:40;18.60;53.40
24144;DHT22;12307;50.828;6.080;2023-01-25T01:02:09;18.60;53.50
24144;DHT22;12307;50.828;6.080;2023-01-25T01:04:34;18.50;53.60
24144;DHT22;12307;50.828;6.080;2023-01-25T01:07:00;18.60;53.80
24144;DHT22;12307;50.828;6.080;2023-01-25T01:09:26;18.60;53.90
24144;DHT22;12307;50.828;6.080;2023-01-25T01:11:52;18.50;54.00
24144;DHT22;12307;50.828;6.080;2023-01-25T01:14:18;18.50;53.90
24144;DHT22;12307;50.828;6.080;2023-01-25T01:16:45;18.50;53.90
24144;DHT22;12307;50.828;6.080;2023-01-25T01:19:11;18.50;53.80
24144;DHT22;12307;50.828;6.080;2023-01-25T01:21:37;18.50;53.80
24144;DHT22;12307;50.828;6.080;2023-01-25T01:24:03;18.50;53.80
24144;DHT22;12307;50.828;6.080;2023-01-25T01:26:29;18.50;53.90
24144;DHT22;12307;50.828;6.080;2023-01-25T01:28:56;18.50;53.90
24144;DHT22;12307;50.828;6.080;2023-01-25T01:31:22;18.50;53.90
24144;DHT22;12307;50.828;6.080;2023-01-25T01:33:50;18.40;53.90
24144;DHT22;12307;50.828;6.080;2023-01-25T01:36:19;18.40;53.90
24144;DHT22;12307;50.828;6.080;2023-01-25T01:38:45;18.40;53.90
24144;DHT22;12307;50.828;6.080;2023-01-25T01:41:11;18.40;53.80
24144;DHT22;12307;50.828;6.080;2023-01-25T01:43:38;18.40;53.60
24144;DHT22;12307;50.828;6.080;2023-01-25T01:46:05;18.50;53.40
24144;DHT22;12307;50.828;6.080;2023-01-25T01:48:35;18.50;53.50
24144;DHT22;12307;50.828;6.080;2023-01-25T01:51:10;18.50;53.60
24144;DHT22;12307;50.828;6.080;2023-01-25T01:53:39;18.50;53.60
24144;DHT22;12307;50.828;6.080;2023-01-25T01:56:08;18.60;53.50
24144;DHT22;12307;50.828;6.080;2023-01-25T01:58:35;18.60;53.10
24144;DHT22;12307;50.828;6.080;2023-01-25T02:01:01;18.70;53.00
24144;DHT22;12307;50.828;6.080;2023-01-25T02:03:28;18.70;52.90
24144;DHT22;12307;50.828;6.080;2023-01-25T02:05:57;18.70;52.80
24144;DHT22;12307;50.828;6.080;2023-01-25T02:08:27;18.70;52.80
24144;DHT22;12307;50.828;6.080;2023-01-25T02:10:55;18.70;52.80
24144;DHT22;12307;50.828;6.080;2023-01-25T02:13:21;18.70;52.90
24144;DHT22;12307;50.828;6.080;2023-01-25T02:15:49;18.60;52.90
24144;DHT22;12307;50.828;6.080;2023-01-25T02:18:16;18.70;52.90
24144;DHT22;12307;50.828;6.080;2023-01-25T02:20:44;18.60;52.90
24144;DHT22;12307;50.828;6.080;2023-01-25T02:23:16;18.60;53.00
24144;DHT22;12307;50.828;6.080;2023-01-25T02:25:45;18.60;53.20
24144;DHT22;12307;50.828;6.080;2023-01-25T02:28:14;18.60;53.40
24144;DHT22;12307;50.828;6.080;2023-01-25T02:30:42;18.60;53.70
24144;DHT22;12307;50.828;6.080;2023-01-25T02:33:09;18.60;53.80
24144;DHT22;12307;50.828;6.080;2023-01-25T02:35:40;18.60;53.80
24144;DHT22;12307;50.828;6.080;2023-01-25T02:38:07;18.50;54.40
24144;DHT22;12307;50.828;6.080;2023-01-25T02:40:40;18.50;53.60
24144;DHT22;12307;50.828;6.080;2023-01-25T02:43:07;18.50;53.50
24144;DHT22;12307;50.828;6.080;2023-01-25T02:45:33;18.50;54.20
24144;DHT22;12307;50.828;6.080;2023-01-25T02:47:58;18.50;53.50
24144;DHT22;12307;50.828;6.080;2023-01-25T02:50:24;18.50;53.50
24144;DHT22;12307;50.828;6.080;2023-01-25T02:52:50;18.50;53.50
24144;DHT22;12307;50.828;6.080;2023-01-25T02:55:16;18.50;53.50
24144;DHT22;12307;50.828;6.080;2023-01-25T02:57:41;18.50;53.50
24144;DHT22;12307;50.828;6.080;2023-01-25T03:00:09;18.50;53.50
24144;DHT22;12307;50.828;6.080;2023-01-25T03:02:35;18.50;53.60
24144;DHT22;12307;50.828;6.080;2023-01-25T03:05:01;18.50;53.60
24144;DHT22;12307;50.828;6.080;2023-01-25T03:07:27;18.40;53.60
24144;DHT22;12307;50.828;6.080;2023-01-25T03:09:52;18.50;53.60
24144;DHT22;12307;50.828;6.080;2023-01-25T03:12:18;18.40;53.60
24144;DHT22;12307;50.828;6.080;2023-01-25T03:14:44;18.40;53.70
24144;DHT22;12307;50.828;6.080;2023-01-25T03:17:11;18.40;53.70
24144;DHT22;12307;50.828;6.080;2023-01-25T03:19:37;18.40;53.80
24144;DHT22;12307;50.828;6.080;2023-01-25T03:22:02;18.40;53.80
24144;DHT22;12307;50.828;6.080;2023-01-25T03:24:30;18.40;53.40
24144;DHT22;12307;50.828;6.080;2023-01-25T03:26:56;18.40;53.20
24144;DHT22;12307;50.828;6.080;2023-01-25T03:29:38;18.50;53.40
24144;DHT22;12307;50.828;6.080;2023-01-25T03:32:04;18.50;53.40
24144;DHT22;12307;50.828;6.080;2023-01-25T03:34:31;18.50;53.70
24144;DHT22;12307;50.828;6.080;2023-01-25T03:36:57;18.50;54.20
24144;DHT22;12307;50.828;6.080;2023-01-25T03:39:23;18.50;53.80
24144;DHT22;12307;50.828;6.080;2023-01-25T03:41:48;18.50;53.40
24144;DHT22;12307;50.828;6.080;2023-01-25T03:44:14;18.60;53.20
24144;DHT22;12307;50.828;6.080;2023-01-25T03:46:40;18.60;52.90
24144;DHT22;12307;50.828;6.080;2023-01-25T03:49:07;18.60;52.80
24144;DHT22;12307;50.828;6.080;2023-01-25T03:51:35;18.60;52.60
24144;DHT22;12307;50.828;6.080;2023-01-25T03:54:01;18.60;52.60
24144;DHT22;12307;50.828;6.080;2023-01-25T03:56:26;18.60;52.60
24144;DHT22;12307;50.828;6.080;2023-01-25T03:58:52;18.60;52.60
24144;DHT22;12307;50.828;6.080;2023-01-25T04:01:18;18.60;52.70
24144;DHT22;12307;50.828;6.080;2023-01-25T04:03:43;18.60;52.70
24144;DHT22;12307;50.828;6.080;2023-01-25T04:06:09;18.70;52.80
24144;DHT22;12307;50.828;6.080;2023-01-25T04:08:36;18.60;52.80
24144;DHT22;12307;50.828;6.080;2023-01-25T04:11:05;18.60;52.90
24144;DHT22;12307;50.828;6.080;2023-01-25T04:13:31;18.60;52.90
24144;DHT22;12307;50.828;6.080;2023-01-25T04:15:59;18.60;53.00
24144;DHT22;12307;50.828;6.080;2023-01-25T04:18:25;18.60;53.30
24144;DHT22;12307;50.828;6.080;2023-01-25T04:20:51;18.60;53.40
24144;DHT22;12307;50.828;6.080;2023-01-25T04:23:18;18.50;53.50
24144;DHT22;12307;50.828;6.080;2023-01-25T04:25:51;18.60;53.60
24144;DHT22;12307;50.828;6.080;2023-01-25T04:28:17;18.50;53.60
24144;DHT22;12307;50.828;6.080;2023-01-25T04:30:42;18.50;53.50
24144;DHT22;12307;50.828;6.080;2023-01-25T04:33:08;18.50;53.50
24144;DHT22;12307;50.828;6.080;2023-01-25T04:35:36;18.50;53.40
24144;DHT22;12307;50.828;6.080;2023-01-25T04:38:02;18.50;53.40
24144;DHT22;12307;50.828;6.080;2023-01-25T04:40:27;18.50;53.40
24144;DHT22;12307;50.828;6.080;2023-01-25T04:42:54;18.50;54.20
24144;DHT22;12307;50.828;6.080;2023-01-25T04:45:20;18.40;53.50
24144;DHT22;12307;50.828;6.080;2023-01-25T04:47:46;18.40;53.50
24144;DHT22;12307;50.828;6.080;2023-01-25T04:50:11;18.40;53.40
24144;DHT22;12307;50.828;6.080;2023-01-25T04:52:37;18.40;53.50
24144;DHT22;12307;50.828;6.080;2023-01-25T04:55:03;18.40;53.50
24144;DHT22;12307;50.828;6.080;2023-01-25T04:57:29;18.40;53.30
24144;DHT22;12307;50.828;6.080;2023-01-25T04:59:56;18.40;53.30
24144;DHT22;12307;50.828;6.080;2023-01-25T05:02:22;18.40;53.00
24144;DHT22;12307;50.828;6.080;2023-01-25T05:04:47;18.50;53.00
24144;DHT22;12307;50.828;6.080;2023-01-25T05:07:13;18.50;53.00
24144;DHT22;12307;50.828;6.080;2023-01-25T05:09:39;18.60;53.00
24144;DHT22;12307;50.828;6.080;2023-01-25T05:12:05;18.60;53.10
24144;DHT22;12307;50.828;6.080;2023-01-25T05:14:36;18.60;53.00
24144;DHT22;12307;50.828;6.080;2023-01-25T05:17:03;18.70;52.80
24144;DHT22;12307;50.828;6.080;2023-01-25T05:19:29;18.70;52.60
24144;DHT22;12307;50.828;6.080;2023-01-25T05:21:54;18.80;52.60
24144;DHT22;12307;50.828;6.080;2023-01-25T05:24:23;18.80;52.60
24144;DHT22;12307;50.828;6.080;2023-01-25T05:26:48;18.70;52.50
24144;DHT22;12307;50.828;6.080;2023-01-25T05:29:30;18.70;52.50
24144;DHT22;12307;50.828;6.080;2023-01-25T05:31:56;18.60;52.50
24144;DHT22;12307;50.828;6.080;2023-01-25T05:34:24;18.60;52.50
24144;DHT22;12307;50.828;6.080;2023-01-25T05:36:50;18.60;52.60
24144;DHT22;12307;50.828;6.080;2023-01-25T05:39:16;18.60;52.60
24144;DHT22;12307;50.828;6.080;2023-01-25T05:41:42;18.60;52.80
24144;DHT22;12307;50.828;6.080;2023-01-25T05:44:08;18.60;53.00
24144;DHT22;12307;50.828;6.080;2023-01-25T05:46:33;18.60;53.00
24144;DHT22;12307;50.828;6.080;2023-01-25T05:48:59;18.60;53.10
24144;DHT22;12307;50.828;6.080;2023-01-25T05:51:26;18.50;53.10
24144;DHT22;12307;50.828;6.080;2023-01-25T05:53:53;18.50;53.20
24144;DHT22;12307;50.828;6.080;2023-01-25T05:56:19;18.50;53.20
24144;DHT22;12307;50.828;6.080;2023-01-25T05:58:44;18.50;53.20
24144;DHT22;12307;50.828;6.080;2023-01-25T06:01:10;18.50;53.20
24144;DHT22;12307;50.828;6.080;2023-01-25T06:03:36;18.50;53.10
24144;DHT22;12307;50.828;6.080;2023-01-25T06:06:02;18.50;53.20
24144;DHT22;12307;50.828;6.080;2023-01-25T06:08:29;18.50;53.20
24144;DHT22;12307;50.828;6.080;2023-01-25T06:10:55;18.50;53.20
24144;DHT22;12307;50.828;6.080;2023-01-25T06:13:21;18.50;53.20
24144;DHT22;12307;50.828;6.080;2023-01-25T06:15:51;18.50;53.30
24144;DHT22;12307;50.828;6.080;2023-01-25T06:18:17;18.40;53.20
24144;DHT22;12307;50.828;6.080;2023-01-25T06:20:42;18.40;53.20
24144;DHT22;12307;50.828;6.080;2023-01-25T06:23:08;18.40;53.20
24144;DHT22;12307;50.828;6.080;2023-01-25T06:25:35;18.40;53.30
24144;DHT22;12307;50.828;6.080;2023-01-25T06:28:01;18.40;53.40
24144;DHT22;12307;50.828;6.080;2023-01-25T06:30:26;18.40;53.50
24144;DHT22;12307;50.828;6.080;2023-01-25T06:32:52;18.40;53.50
24144;DHT22;12307;50.828;6.080;2023-01-25T06:35:18;18.40;53.70
24144;DHT22;12307;50.828;6.080;2023-01-25T06:37:43;18.40;53.60
24144;DHT22;12307;50.828;6.080;2023-01-25T06:40:10;18.40;53.40
24144;DHT22;12307;50.828;6.080;2023-01-25T06:42:37;18.40;53.40
24144;DHT22;12307;50.828;6.080;2023-01-25T06:45:04;18.40;53.30
24144;DHT22;12307;50.828;6.080;2023-01-25T06:47:29;18.40;53.10
24144;DHT22;12307;50.828;6.080;2023-01-25T06:49:55;18.40;53.00
24144;DHT22;12307;50.828;6.080;2023-01-25T06:52:21;18.40;53.00
24144;DHT22;12307;50.828;6.080;2023-01-25T06:54:46;18.40;53.00
24144;DHT22;12307;50.828;6.080;2023-01-25T06:57:12;18.50;53.20
24144;DHT22;12307;50.828;6.080;2023-01-25T06:59:39;18.50;53.00
24144;DHT22;12307;50.828;6.080;2023-01-25T07:02:05;18.60;52.80
24144;DHT22;12307;50.828;6.080;2023-01-25T07:04:31;18.60;52.60
24144;DHT22;12307;50.828;6.080;2023-01-25T07:06:57;18.60;52.60
24144;DHT22;12307;50.828;6.080;2023-01-25T07:09:23;18.60;52.50
24144;DHT22;12307;50.828;6.080;2023-01-25T07:11:49;18.50;52.50
24144;DHT22;12307;50.828;6.080;2023-01-25T07:14:15;18.50;52.50
24144;DHT22;12307;50.828;6.080;2023-01-25T07:16:42;18.50;52.60
24144;DHT22;12307;50.828;6.080;2023-01-25T07:19:10;18.50;52.60
24144;DHT22;12307;50.828;6.080;2023-01-25T07:21:37;18.60;52.70
24144;DHT22;12307;50.828;6.080;2023-01-25T07:24:04;18.60;52.80
24144;DHT22;12307;50.828;6.080;2023-01-25T07:26:30;18.50;52.80
24144;DHT22;12307;50.828;6.080;2023-01-25T07:28:57;18.50;52.80
24144;DHT22;12307;50.828;6.080;2023-01-25T07:31:23;18.50;53.00
24144;DHT22;12307;50.828;6.080;2023-01-25T07:33:52;18.50;53.20
24144;DHT22;12307;50.828;6.080;2023-01-25T07:36:18;18.50;53.40
24144;DHT22;12307;50.828;6.080;2023-01-25T07:38:44;18.50;53.30
24144;DHT22;12307;50.828;6.080;2023-01-25T07:41:10;18.50;53.40
24144;DHT22;12307;50.828;6.080;2023-01-25T07:43:35;18.50;53.30
24144;DHT22;12307;50.828;6.080;2023-01-25T07:46:02;18.50;53.40
24144;DHT22;12307;50.828;6.080;2023-01-25T07:48:28;18.50;53.50
24144;DHT22;12307;50.828;6.080;2023-01-25T07:50:58;18.40;53.40
24144;DHT22;12307;50.828;6.080;2023-01-25T07:53:36;18.40;53.50
24144;DHT22;12307;50.828;6.080;2023-01-25T07:56:02;18.40;53.50
24144;DHT22;12307;50.828;6.080;2023-01-25T07:58:27;18.40;53.70
24144;DHT22;12307;50.828;6.080;2023-01-25T08:00:53;18.40;53.80
24144;DHT22;12307;50.828;6.080;2023-01-25T08:03:19;18.40;53.80
24144;DHT22;12307;50.828;6.080;2023-01-25T08:05:46;18.40;53.60
24144;DHT22;12307;50.828;6.080;2023-01-25T08:08:13;18.30;53.50
24144;DHT22;12307;50.828;6.080;2023-01-25T08:10:39;18.30;53.50
24144;DHT22;12307;50.828;6.080;2023-01-25T08:13:05;18.30;53.50
24144;DHT22;12307;50.828;6.080;2023-01-25T08:15:31;18.30;53.60
24144;DHT22;12307;50.828;6.080;2023-01-25T08:17:58;18.30;53.60
24144;DHT22;12307;50.828;6.080;2023-01-25T08:20:24;18.30;53.70
24144;DHT22;12307;50.828;6.080;2023-01-25T08:22:51;18.30;53.70
24144;DHT22;12307;50.828;6.080;2023-01-25T08:25:18;18.30;53.70
24144;DHT22;12307;50.828;6.080;2023-01-25T08:27:44;18.30;53.70
24144;DHT22;12307;50.828;6.080;2023-01-25T08:30:10;18.30;53.70
24144;DHT22;12307;50.828;6.080;2023-01-25T08:32:37;18.30;53.70
24144;DHT22;12307;50.828;6.080;2023-01-25T08:35:03;18.30;53.60
24144;DHT22;12307;50.828;6.080;2023-01-25T08:37:29;18.30;53.70
24144;DHT22;12307;50.828;6.080;2023-01-25T08:39:55;18.40;53.60
24144;DHT22;12307;50.828;6.080;2023-01-25T08:42:25;18.40;53.60
24144;DHT22;12307;50.828;6.080;2023-01-25T08:44:51;18.40;53.90
24144;DHT22;12307;50.828;6.080;2023-01-25T08:47:16;18.40;53.80
24144;DHT22;12307;50.828;6.080;2023-01-25T08:49:43;18.50;53.80
24144;DHT22;12307;50.828;6.080;2023-01-25T08:52:08;18.50;53.80
24144;DHT22;12307;50.828;6.080;2023-01-25T08:54:34;18.50;53.90
24144;DHT22;12307;50.828;6.080;2023-01-25T08:57:00;18.50;54.00
24144;DHT22;12307;50.828;6.080;2023-01-25T08:59:28;18.50;54.10
24144;DHT22;12307;50.828;6.080;2023-01-25T09:01:54;18.50;54.00
24144;DHT22;12307;50.828;6.080;2023-01-25T09:04:20;18.60;54.20
24144;DHT22;12307;50.828;6.080;2023-01-25T09:06:45;18.60;54.30
24144;DHT22;12307;50.828;6.080;2023-01-25T09:09:11;18.60;54.10
24144;DHT22;12307;50.828;6.080;2023-01-25T09:11:37;18.60;54.10
24144;DHT22;12307;50.828;6.080;2023-01-25T09:14:04;18.60;54.00
24144;DHT22;12307;50.828;6.080;2023-01-25T09:16:31;18.60;54.00
24144;DHT22;12307;50.828;6.080;2023-01-25T09:18:59;18.60;54.20
24144;DHT22;12307;50.828;6.080;2023-01-25T09:21:25;18.60;54.20
24144;DHT22;12307;50.828;6.080;2023-01-25T09:23:52;18.60;54.20
24144;DHT22;12307;50.828;6.080;2023-01-25T09:26:18;18.60;54.20
24144;DHT22;12307;50.828;6.080;2023-01-25T09:28:46;18.60;54.20
24144;DHT22;12307;50.828;6.080;2023-01-25T09:31:12;18.60;54.10
24144;DHT22;12307;50.828;6.080;2023-01-25T09:33:40;18.60;54.00
24144;DHT22;12307;50.828;6.080;2023-01-25T09:36:07;18.60;54.10
24144;DHT22;12307;50.828;6.080;2023-01-25T09:38:33;18.60;54.10
24144;DHT22;12307;50.828;6.080;2023-01-25T09:41:06;18.60;54.10
24144;DHT22;12307;50.828;6.080;2023-01-25T09:43:49;18.60;54.20
24144;DHT22;12307;50.828;6.080;2023-01-25T09:46:21;18.60;54.00
24144;DHT22;12307;50.828;6.080;2023-01-25T09:48:55;18.60;54.20
24144;DHT22;12307;50.828;6.080;2023-01-25T09:51:26;18.60;54.20
24144;DHT22;12307;50.828;6.080;2023-01-25T09:53:57;18.60;54.50
24144;DHT22;12307;50.828;6.080;2023-01-25T09:56:26;18.60;54.60
24144;DHT22;12307;50.828;6.080;2023-01-25T09:58:56;18.60;54.20
24144;DHT22;12307;50.828;6.080;2023-01-25T10:01:27;18.60;54.10
24144;DHT22;12307;50.828;6.080;2023-01-25T10:04:00;18.60;54.00
24144;DHT22;12307;50.828;6.080;2023-01-25T10:06:36;18.60;54.10
24144;DHT22;12307;50.828;6.080;2023-01-25T10:09:06;18.60;54.30
24144;DHT22;12307;50.828;6.080;2023-01-25T10:11:36;18.60;54.40
24144;DHT22;12307;50.828;6.080;2023-01-25T10:14:11;18.60;54.50
24144;DHT22;12307;50.828;6.080;2023-01-25T10:16:46;18.60;54.60
24144;DHT22;12307;50.828;6.080;2023-01-25T10:19:19;18.60;54.70
24144;DHT22;12307;50.828;6.080;2023-01-25T10:21:50;18.60;54.70
24144;DHT22;12307;50.828;6.080;2023-01-25T10:24:42;18.60;54.70
24144;DHT22;12307;50.828;6.080;2023-01-25T10:27:18;18.60;54.80
24144;DHT22;12307;50.828;6.080;2023-01-25T10:29:47;18.60;55.00
24144;DHT22;12307;50.828;6.080;2023-01-25T10:32:18;18.60;54.90
24144;DHT22;12307;50.828;6.080;2023-01-25T10:34:47;18.60;54.80
24144;DHT22;12307;50.828;6.080;2023-01-25T10:37:18;18.60;54.50
24144;DHT22;12307;50.828;6.080;2023-01-25T10:39:51;18.60;54.80
24144;DHT22;12307;50.828;6.080;2023-01-25T10:42:19;18.60;54.60
24144;DHT22;12307;50.828;6.080;2023-01-25T10:44:46;18.60;54.60
24144;DHT22;12307;50.828;6.080;2023-01-25T10:47:16;18.60;54.40
24144;DHT22;12307;50.828;6.080;2023-01-25T10:49:47;18.60;54.50
24144;DHT22;12307;50.828;6.080;2023-01-25T10:52:16;18.60;54.40
24144;DHT22;12307;50.828;6.080;2023-01-25T10:54:42;18.60;54.30
24144;DHT22;12307;50.828;6.080;2023-01-25T10:57:12;18.70;54.40
24144;DHT22;12307;50.828;6.080;2023-01-25T10:59:43;18.60;54.20
24144;DHT22;12307;50.828;6.080;2023-01-25T11:02:37;18.60;54.10
24144;DHT22;12307;50.828;6.080;2023-01-25T11:05:33;18.70;54.10
24144;DHT22;12307;50.828;6.080;2023-01-25T11:08:21;18.70;54.10
24144;DHT22;12307;50.828;6.080;2023-01-25T11:10:47;18.70;54.10
24144;DHT22;12307;50.828;6.080;2023-01-25T11:13:21;18.70;54.20
24144;DHT22;12307;50.828;6.080;2023-01-25T11:15:49;18.70;54.20
24144;DHT22;12307;50.828;6.080;2023-01-25T11:18:19;18.70;54.20
24144;DHT22;12307;50.828;6.080;2023-01-25T11:20:47;18.80;54.40
24144;DHT22;12307;50.828;6.080;2023-01-25T11:23:25;18.70;54.50
24144;DHT22;12307;50.828;6.080;2023-01-25T11:25:51;18.70;55.10
24144;DHT22;12307;50.828;6.080;2023-01-25T11:28:19;18.70;55.10
24144;DHT22;12307;50.828;6.080;2023-01-25T11:30:46;18.70;55.00
24144;DHT22;12307;50.828;6.080;2023-01-25T11:33:13;18.70;55.00
24144;DHT22;12307;50.828;6.080;2023-01-25T11:35:51;18.70;55.00
24144;DHT22;12307;50.828;6.080;2023-01-25T11:38:21;18.70;54.80
24144;DHT22;12307;50.828;6.080;2023-01-25T11:40:50;18.80;54.90
24144;DHT22;12307;50.828;6.080;2023-01-25T11:43:28;18.70;54.80
24144;DHT22;12307;50.828;6.080;2023-01-25T11:46:21;18.70;54.90
24144;DHT22;12307;50.828;6.080;2023-01-25T11:49:02;18.70;54.80
24144;DHT22;12307;50.828;6.080;2023-01-25T11:51:40;18.70;54.70
24144;DHT22;12307;50.828;6.080;2023-01-25T11:54:31;18.70;54.80
24144;DHT22;12307;50.828;6.080;2023-01-25T11:56:59;18.80;54.80
24144;DHT22;12307;50.828;6.080;2023-01-25T11:59:44;18.70;54.80
24144;DHT22;12307;50.828;6.080;2023-01-25T12:02:44;18.70;54.80
24144;DHT22;12307;50.828;6.080;2023-01-25T12:05:23;18.70;54.80
24144;DHT22;12307;50.828;6.080;2023-01-25T12:08:04;18.70;54.80
24144;DHT22;12307;50.828;6.080;2023-01-25T12:10:41;18.80;54.80
24144;DHT22;12307;50.828;6.080;2023-01-25T12:13:15;18.80;54.90
24144;DHT22;12307;50.828;6.080;2023-01-25T12:16:05;18.80;54.90
24144;DHT22;12307;50.828;6.080;2023-01-25T12:18:52;18.80;55.20
24144;DHT22;12307;50.828;6.080;2023-01-25T12:21:28;18.80;55.90
24144;DHT22;12307;50.828;6.080;2023-01-25T12:24:07;18.80;55.80
24144;DHT22;12307;50.828;6.080;2023-01-25T12:26:44;18.80;55.50
24144;DHT22;12307;50.828;6.080;2023-01-25T12:29:20;18.80;55.40
24144;DHT22;12307;50.828;6.080;2023-01-25T12:31:50;18.80;55.30
24144;DHT22;12307;50.828;6.080;2023-01-25T12:34:23;18.80;55.20
24144;DHT22;12307;50.828;6.080;2023-01-25T12:36:51;18.70;55.30
24144;DHT22;12307;50.828;6.080;2023-01-25T12:39:21;18.70;55.30
24144;DHT22;12307;50.828;6.080;2023-01-25T12:41:52;18.80;55.50
24144;DHT22;12307;50.828;6.080;2023-01-25T12:44:26;18.70;55.60
24144;DHT22;12307;50.828;6.080;2023-01-25T12:46:58;18.80;55.70
24144;DHT22;12307;50.828;6.080;2023-01-25T12:49:32;18.80;55.50
24144;DHT22;12307;50.828;6.080;2023-01-25T12:52:00;18.80;55.30
24144;DHT22;12307;50.828;6.080;2023-01-25T12:54:32;18.70;55.50
24144;DHT22;12307;50.828;6.080;2023-01-25T12:57:15;18.70;55.90
24144;DHT22;12307;50.828;6.080;2023-01-25T12:59:51;18.70;55.80
24144;DHT22;12307;50.828;6.080;2023-01-25T13:02:28;18.70;55.40
24144;DHT22;12307;50.828;6.080;2023-01-25T13:05:02;18.70;55.40
24144;DHT22;12307;50.828;6.080;2023-01-25T13:07:42;18.70;56.10
24144;DHT22;12307;50.828;6.080;2023-01-25T13:10:16;18.70;55.50
24144;DHT22;12307;50.828;6.080;2023-01-25T13:12:52;18.70;55.40
24144;DHT22;12307;50.828;6.080;2023-01-25T13:15:38;18.70;55.40
24144;DHT22;12307;50.828;6.080;2023-01-25T13:18:34;18.70;55.40
24144;DHT22;12307;50.828;6.080;2023-01-25T13:21:02;18.70;55.30
24144;DHT22;12307;50.828;6.080;2023-01-25T13:23:34;18.80;55.20
24144;DHT22;12307;50.828;6.080;2023-01-25T13:26:42;18.70;55.20
24144;DHT22;12307;50.828;6.080;2023-01-25T13:32:52;18.80;55.10
24144;DHT22;12307;50.828;6.080;2023-01-25T13:35:28;18.80;55.10
24144;DHT22;12307;50.828;6.080;2023-01-25T13:38:02;18.80;55.20
24144;DHT22;12307;50.828;6.080;2023-01-25T13:40:31;18.80;55.40
24144;DHT22;12307;50.828;6.080;2023-01-25T13:43:01;18.80;55.30
24144;DHT22;12307;50.828;6.080;2023-01-25T13:45:29;18.80;55.20
24144;DHT22;12307;50.828;6.080;2023-01-25T13:48:03;18.80;55.20
24144;DHT22;12307;50.828;6.080;2023-01-25T13:50:32;18.80;55.10
24144;DHT22;12307;50.828;6.080;2023-01-25T13:53:00;18.80;55.20
24144;DHT22;12307;50.828;6.080;2023-01-25T13:55:27;18.80;55.20
24144;DHT22;12307;50.828;6.080;2023-01-25T13:58:13;18.80;55.20
24144;DHT22;12307;50.828;6.080;2023-01-25T14:00:47;18.80;55.20
24144;DHT22;12307;50.828;6.080;2023-01-25T14:03:13;18.80;55.20
24144;DHT22;12307;50.828;6.080;2023-01-25T14:05:38;18.80;55.20
24144;DHT22;12307;50.828;6.080;2023-01-25T14:08:04;18.80;55.20
24144;DHT22;12307;50.828;6.080;2023-01-25T14:10:30;18.80;55.30
24144;DHT22;12307;50.828;6.080;2023-01-25T14:12:58;18.80;55.40
24144;DHT22;12307;50.828;6.080;2023-01-25T14:15:27;18.80;55.40
24144;DHT22;12307;50.828;6.080;2023-01-25T14:18:05;18.80;55.40
24144;DHT22;12307;50.828;6.080;2023-01-25T14:20:33;18.80;55.30
24144;DHT22;12307;50.828;6.080;2023-01-25T14:22:59;18.80;55.20
24144;DHT22;12307;50.828;6.080;2023-01-25T14:25:25;18.80;55.30
24144;DHT22;12307;50.828;6.080;2023-01-25T14:27:52;18.80;55.20
24144;DHT22;12307;50.828;6.080;2023-01-25T14:30:20;18.80;55.20
24144;DHT22;12307;50.828;6.080;2023-01-25T14:32:49;18.80;55.20
24144;DHT22;12307;50.828;6.080;2023-01-25T14:35:39;18.70;55.10
24144;DHT22;12307;50.828;6.080;2023-01-25T14:38:22;18.80;55.20
24144;DHT22;12307;50.828;6.080;2023-01-25T14:40:48;18.80;55.20
24144;DHT22;12307;50.828;6.080;2023-01-25T14:43:16;18.70;55.20
24144;DHT22;12307;50.828;6.080;2023-01-25T14:45:42;18.70;55.30
24144;DHT22;12307;50.828;6.080;2023-01-25T14:48:33;18.70;55.50
24144;DHT22;12307;50.828;6.080;2023-01-25T14:51:08;18.70;55.50
24144;DHT22;12307;50.828;6.080;2023-01-25T14:53:38;18.70;55.50
24144;DHT22;12307;50.828;6.080;2023-01-25T14:56:16;18.70;55.50
24144;DHT22;12307;50.828;6.080;2023-01-25T14:58:42;18.70;55.60
24144;DHT22;12307;50.828;6.080;2023-01-25T15:01:13;18.70;55.60
24144;DHT22;12307;50.828;6.080;2023-01-25T15:03:46;18.70;55.80
24144;DHT22;12307;50.828;6.080;2023-01-25T15:06:12;18.70;55.90
24144;DHT22;12307;50.828;6.080;2023-01-25T15:08:38;18.60;55.80
24144;DHT22;12307;50.828;6.080;2023-01-25T15:11:20;18.70;55.80
24144;DHT22;12307;50.828;6.080;2023-01-25T15:14:18;18.60;55.70
24144;DHT22;12307;50.828;6.080;2023-01-25T15:16:44;18.60;55.70
24144;DHT22;12307;50.828;6.080;2023-01-25T15:19:26;18.60;55.70
24144;DHT22;12307;50.828;6.080;2023-01-25T15:21:58;18.60;55.80
24144;DHT22;12307;50.828;6.080;2023-01-25T15:24:24;18.60;55.90
24144;DHT22;12307;50.828;6.080;2023-01-25T15:26:51;18.60;56.00
24144;DHT22;12307;50.828;6.080;2023-01-25T15:29:19;18.60;56.00
24144;DHT22;12307;50.828;6.080;2023-01-25T15:31:46;18.60;56.10
24144;DHT22;12307;50.828;6.080;2023-01-25T15:34:14;18.60;56.10
24144;DHT22;12307;50.828;6.080;2023-01-25T15:36:42;18.60;56.10
24144;DHT22;12307;50.828;6.080;2023-01-25T15:39:11;18.60;55.90
24144;DHT22;12307;50.828;6.080;2023-01-25T15:41:38;18.70;56.00
24144;DHT22;12307;50.828;6.080;2023-01-25T15:44:04;18.70;55.80
24144;DHT22;12307;50.828;6.080;2023-01-25T15:46:30;18.70;55.60